Main page
Satellite images Climate Cyclones Lightning AirportsFAQ Languages Contact Newsletter About
Weather : Europe Africa North America South America Asia Australia-Oceania Others

hanoi-vn, Hanoi, Noi Bai International Airport

latitude: , longitude: Vietnam, elevation: 21-01N m


METAR: VVNB 220030Z 05010KT 030V120 9000 FEW012 BKN019 18/13 Q1017 NOSIG